Time;durP1;ratioP1;P1;durP2;ratioP2;P2;SDS_P1;SDS_P2;PMS_P1;PMS_P2;Temp;Humidity;BMP_temperature;BMP_pressure;BME280_temperature;BME280_humidity;BME280_pressure;Samples;Min_cycle;Max_cycle;Signal;HPM_P1;HPM_P2
2023/10/10 00:02:28;;;;;;;29.23;25.13;;;14.20;93.80;;;;;;5017185;28;20028;-79
2023/10/10 00:04:56;;;;;;;28.58;22.88;;;14.10;93.70;;;;;;5014861;28;20025;-79
2023/10/10 00:07:23;;;;;;;29.13;23.65;;;14.10;93.70;;;;;;5019056;28;20087;-77
2023/10/10 00:09:50;;;;;;;29.10;24.40;;;14.10;93.80;;;;;;5013376;28;20034;-78
2023/10/10 00:12:25;;;;;;;32.15;24.30;;;14.10;93.90;;;;;;5018254;28;20052;-80
2023/10/10 00:14:52;;;;;;;28.58;24.02;;;14.10;93.90;;;;;;5012510;28;20053;-80
2023/10/10 00:17:20;;;;;;;29.17;24.55;;;14.10;93.90;;;;;;5015739;28;20033;-76
2023/10/10 00:20:15;;;;;;;28.95;24.25;;;14.00;93.80;;;;;;5021986;28;20700;-78
2023/10/10 00:22:35;;;;;;;30.17;24.20;;;14.00;93.80;;;;;;5018653;28;20045;-75
2023/10/10 00:25:04;;;;;;;30.00;25.10;;;14.00;93.80;;;;;;5021808;28;20040;-76
2023/10/10 00:27:31;;;;;;;27.70;22.58;;;13.90;93.90;;;;;;5018744;28;20447;-79
2023/10/10 00:30:02;;;;;;;28.65;23.35;;;14.00;93.90;;;;;;5022182;28;20269;-80
2023/10/10 00:32:35;;;;;;;31.08;24.20;;;13.90;93.90;;;;;;5019055;28;20022;-75
2023/10/10 00:35:06;;;;;;;27.50;22.67;;;13.90;93.90;;;;;;5016446;28;20032;-76
2023/10/10 00:37:34;;;;;;;27.13;22.58;;;13.90;94.00;;;;;;5019421;28;20037;-79
2023/10/10 00:40:09;;;;;;;26.98;22.83;;;13.90;94.00;;;;;;5018552;28;20551;-75
2023/10/10 00:42:41;;;;;;;27.13;23.35;;;13.90;94.10;;;;;;5020612;28;20025;-75
2023/10/10 00:45:14;;;;;;;25.58;21.48;;;13.80;94.00;;;;;;5014442;28;20049;-77
2023/10/10 00:47:43;;;;;;;25.02;21.88;;;13.80;94.00;;;;;;5016739;28;20305;-76
2023/10/10 00:50:34;;;;;;;31.40;24.42;;;13.80;94.10;;;;;;5015492;28;20038;-78
2023/10/10 00:53:04;;;;;;;29.55;22.70;;;13.80;94.00;;;;;;5009140;28;20489;-76
2023/10/10 00:55:33;;;;;;;28.65;23.48;;;13.80;94.10;;;;;;5018297;28;20132;-75
2023/10/10 00:58:01;;;;;;;28.00;23.20;;;13.70;94.00;;;;;;5014002;28;20053;-77
2023/10/10 01:00:29;;;;;;;27.67;24.48;;;13.70;94.10;;;;;;5019150;28;20076;-75
2023/10/10 01:05:43;;;;;;;27.60;23.70;;;13.70;94.10;;;;;;5015591;28;20136;-75
2023/10/10 01:08:10;;;;;;;26.70;22.95;;;13.60;94.00;;;;;;5017189;28;20088;-76
2023/10/10 01:10:47;;;;;;;27.85;23.65;;;13.60;94.00;;;;;;5018972;28;20037;-80
2023/10/10 01:13:13;;;;;;;28.00;22.38;;;13.70;94.00;;;;;;5031893;28;20024;-79
2023/10/10 01:15:43;;;;;;;27.88;23.90;;;13.60;94.00;;;;;;5030210;28;20061;-78
2023/10/10 01:18:13;;;;;;;28.23;22.40;;;13.60;94.00;;;;;;5034384;28;20294;-79
2023/10/10 01:20:46;;;;;;;27.90;23.52;;;13.60;94.10;;;;;;5014014;28;20026;-78
2023/10/10 01:23:15;;;;;;;30.25;23.27;;;13.60;94.10;;;;;;5012920;28;20418;-80
2023/10/10 01:25:48;;;;;;;28.48;23.33;;;13.60;94.20;;;;;;5019599;28;20040;-75
2023/10/10 01:33:25;;;;;;;31.00;24.83;;;13.70;94.20;;;;;;5016767;28;20383;-75
2023/10/10 01:35:55;;;;;;;30.63;23.30;;;13.70;94.20;;;;;;5018822;28;20072;-77
2023/10/10 01:38:27;;;;;;;29.75;23.45;;;13.70;94.10;;;;;;5018421;28;20033;-76
2023/10/10 01:40:58;;;;;;;30.88;24.30;;;13.70;94.20;;;;;;5019445;28;20091;-76
2023/10/10 01:43:24;;;;;;;28.90;24.00;;;13.70;94.20;;;;;;5008680;28;20036;-76
2023/10/10 01:46:08;;;;;;;33.28;24.27;;;13.70;94.30;;;;;;5015704;28;20045;-78
2023/10/10 01:48:43;;;;;;;33.08;25.38;;;13.70;94.20;;;;;;5017834;28;20032;-80
2023/10/10 01:51:10;;;;;;;32.78;25.55;;;13.70;94.40;;;;;;5018522;28;20065;-80
2023/10/10 01:53:40;;;;;;;29.65;23.52;;;13.70;94.40;;;;;;5018738;28;21350;-76
2023/10/10 01:56:11;;;;;;;31.50;25.27;;;13.70;94.40;;;;;;5018821;28;20065;-75
2023/10/10 01:58:37;;;;;;;32.08;25.05;;;13.70;94.50;;;;;;5019177;28;20037;-78
2023/10/10 02:01:16;;;;;;;31.73;25.70;;;13.70;94.60;;;;;;5018435;28;20033;-77
2023/10/10 02:03:43;;;;;;;34.03;26.70;;;13.70;94.70;;;;;;5014108;28;20495;-80
2023/10/10 02:06:22;;;;;;;32.67;26.48;;;13.70;94.70;;;;;;5018526;28;20041;-79
2023/10/10 02:08:51;;;;;;;29.48;23.90;;;13.70;94.60;;;;;;5017413;28;20052;-77
2023/10/10 02:11:22;;;;;;;32.30;26.20;;;13.70;94.60;;;;;;5014574;28;20644;-77
2023/10/10 02:13:48;;;;;;;32.90;26.00;;;13.70;94.60;;;;;;5017247;28;20407;-80
2023/10/10 02:16:35;;;;;;;34.28;25.85;;;13.70;94.70;;;;;;5012975;28;20032;-75
2023/10/10 02:19:06;;;;;;;36.78;25.92;;;13.70;94.60;;;;;;5018950;28;20036;-76
2023/10/10 02:21:32;;;;;;;32.10;25.15;;;13.70;94.50;;;;;;5019259;28;20439;-80
2023/10/10 02:26:51;;;;;;;35.67;25.23;;;13.70;94.50;;;;;;5015758;28;20128;-78
2023/10/10 02:29:18;;;;;;;31.85;24.05;;;13.70;94.50;;;;;;5014384;28;20037;-80
2023/10/10 02:31:55;;;;;;;34.47;26.48;;;13.60;94.50;;;;;;5013941;28;20167;-78
2023/10/10 02:34:21;;;;;;;34.63;25.30;;;13.60;94.40;;;;;;5014052;28;20120;-81
2023/10/10 02:37:05;;;;;;;33.53;24.77;;;13.60;94.50;;;;;;5015675;28;20029;-81
2023/10/10 02:39:32;;;;;;;31.45;24.25;;;13.60;94.40;;;;;;5007908;28;20092;-78
2023/10/10 02:42:03;;;;;;;30.38;23.63;;;13.60;94.40;;;;;;5012746;28;20113;-78
2023/10/10 02:47:00;;;;;;;32.95;24.63;;;13.60;94.40;;;;;;5017333;28;20479;-79
2023/10/10 02:51:56;;;;;;;33.63;25.58;;;13.60;94.50;;;;;;5020109;28;20537;-77
2023/10/10 02:56:57;;;;;;;31.38;24.38;;;13.60;94.50;;;;;;5014479;28;20049;-78
2023/10/10 02:59:37;;;;;;;34.65;24.00;;;13.60;94.40;;;;;;5012704;28;20033;-80
2023/10/10 03:02:17;;;;;;;33.08;24.52;;;13.60;94.40;;;;;;5019608;28;20385;-82
2023/10/10 03:07:28;;;;;;;30.35;24.30;;;13.50;94.40;;;;;;5013328;28;20319;-83
2023/10/10 03:10:45;;;;;;;33.35;25.00;;;13.50;94.40;;;;;;5014893;28;20110;-82
2023/10/10 03:13:03;;;;;;;32.30;25.10;;;13.40;94.40;;;;;;5010933;28;20529;-77
2023/10/10 03:15:31;;;;;;;31.90;23.15;;;13.40;94.50;;;;;;5010588;28;20103;-77
2023/10/10 03:25:54;;;;;;;34.70;25.13;;;13.30;94.60;;;;;;5017459;28;20131;-78
2023/10/10 03:28:29;;;;;;;33.45;26.60;;;13.30;94.60;;;;;;5017555;28;20041;-80
2023/10/10 05:25:31;;;;;;;29.95;24.40;;;13.00;94.90;;;;;;5010432;28;20044;-76
2023/10/10 05:27:58;;;;;;;30.65;23.33;;;12.90;94.80;;;;;;5008148;28;20022;-82
2023/10/10 05:30:39;;;;;;;33.45;22.67;;;13.00;94.90;;;;;;5011875;28;20046;-76
2023/10/10 05:33:06;;;;;;;30.80;23.10;;;13.00;94.80;;;;;;5018411;28;20746;-78
2023/10/10 05:35:40;;;;;;;30.52;21.98;;;13.00;94.80;;;;;;5011899;28;20321;-83
2023/10/10 05:38:09;;;;;;;29.40;23.08;;;12.90;94.80;;;;;;5015183;28;20030;-80
2023/10/10 05:40:38;;;;;;;28.90;22.60;;;12.90;94.70;;;;;;5018530;28;20037;-78
2023/10/10 05:43:15;;;;;;;32.88;22.08;;;12.90;94.70;;;;;;5014758;28;20344;-80
2023/10/10 05:45:42;;;;;;;30.42;22.48;;;12.90;94.60;;;;;;5013074;28;20543;-77
2023/10/10 05:48:08;;;;;;;31.33;21.95;;;12.90;94.80;;;;;;5016282;28;20152;-81
2023/10/10 05:50:34;;;;;;;28.83;22.00;;;12.80;94.80;;;;;;5018094;28;20424;-80
2023/10/10 05:53:00;;;;;;;31.77;22.30;;;12.90;94.80;;;;;;5015204;28;20472;-78
2023/10/10 05:55:33;;;;;;;31.40;21.30;;;12.90;94.80;;;;;;5016957;28;20152;-74
2023/10/10 05:58:02;;;;;;;27.65;21.90;;;12.90;94.70;;;;;;5010254;28;20128;-78
2023/10/10 06:00:28;;;;;;;28.58;21.20;;;12.90;94.50;;;;;;5016081;28;20105;-76
2023/10/10 06:02:54;;;;;;;32.72;21.40;;;12.90;94.60;;;;;;5018557;28;20078;-80
2023/10/10 06:05:20;;;;;;;28.08;19.75;;;12.80;94.60;;;;;;5019253;28;20037;-74
2023/10/10 06:07:49;;;;;;;28.20;21.67;;;12.90;94.60;;;;;;5019714;28;20167;-75
2023/10/10 06:10:18;;;;;;;30.25;21.95;;;12.80;94.60;;;;;;5023077;28;20377;-81
2023/10/10 06:12:47;;;;;;;30.52;21.63;;;12.90;94.70;;;;;;5034449;28;20033;-79
2023/10/10 06:15:17;;;;;;;28.42;22.17;;;12.90;94.60;;;;;;5033472;28;20030;-78
2023/10/10 06:17:44;;;;;;;30.33;21.85;;;13.00;94.60;;;;;;5024755;28;20029;-78
2023/10/10 06:20:11;;;;;;;31.20;22.25;;;12.90;94.60;;;;;;5016426;28;20492;-79
2023/10/10 06:22:37;;;;;;;31.58;21.52;;;12.90;94.60;;;;;;5016010;28;20029;-74
2023/10/10 06:25:05;;;;;;;28.92;21.85;;;13.00;94.60;;;;;;5013445;28;20052;-78
2023/10/10 06:27:36;;;;;;;28.33;21.33;;;13.10;94.50;;;;;;5015155;28;20040;-77
2023/10/10 06:30:17;;;;;;;30.95;22.20;;;13.10;94.50;;;;;;5014628;28;20033;-77
2023/10/10 06:32:49;;;;;;;29.48;21.85;;;13.10;94.30;;;;;;5014208;28;20025;-76
2023/10/10 06:37:45;;;;;;;27.73;20.52;;;13.30;94.30;;;;;;5018768;28;20052;-74
2023/10/10 06:40:11;;;;;;;27.85;20.83;;;13.40;94.10;;;;;;5015394;28;20043;-77
2023/10/10 06:42:37;;;;;;;29.10;20.60;;;13.40;93.90;;;;;;5016283;28;20025;-75
2023/10/10 06:45:09;;;;;;;27.67;20.38;;;13.50;93.70;;;;;;5016658;28;20403;-74
2023/10/10 06:47:39;;;;;;;27.52;20.95;;;13.60;93.60;;;;;;5016470;28;20053;-76
2023/10/10 06:50:10;;;;;;;24.10;18.63;;;13.60;93.40;;;;;;5016960;28;20083;-78
2023/10/10 06:52:39;;;;;;;26.45;19.15;;;13.70;93.30;;;;;;5014194;28;20040;-74
2023/10/10 06:55:12;;;;;;;25.55;20.60;;;13.80;93.20;;;;;;5017302;28;20049;-77
2023/10/10 06:57:38;;;;;;;27.10;19.27;;;13.90;93.20;;;;;;5010697;28;20135;-75
2023/10/10 07:00:21;;;;;;;25.90;18.77;;;13.90;93.10;;;;;;5019267;28;20749;-73
2023/10/10 07:02:49;;;;;;;26.02;19.10;;;14.00;92.80;;;;;;5016837;28;20017;-76
2023/10/10 07:05:15;;;;;;;27.58;19.05;;;14.10;92.60;;;;;;5016207;28;20030;-74
2023/10/10 07:07:57;;;;;;;27.88;18.98;;;14.10;92.50;;;;;;5021563;28;20179;-73
2023/10/10 07:10:26;;;;;;;25.88;17.42;;;14.20;92.50;;;;;;5021923;28;20144;-73
2023/10/10 07:12:58;;;;;;;25.88;18.48;;;14.30;92.40;;;;;;5019946;28;20026;-73
2023/10/10 07:15:25;;;;;;;24.25;17.80;;;14.30;91.90;;;;;;5017970;28;20053;-75
2023/10/10 07:18:04;;;;;;;25.27;18.17;;;14.30;92.00;;;;;;5021915;28;20116;-73
2023/10/10 07:23:20;;;;;;;26.23;17.58;;;14.50;91.90;;;;;;5017405;28;20518;-74
2023/10/10 07:25:58;;;;;;;23.55;17.75;;;14.50;91.80;;;;;;5017552;28;20052;-73
2023/10/10 07:28:28;;;;;;;25.02;17.30;;;14.60;91.50;;;;;;5020302;28;20056;-73
2023/10/10 07:30:54;;;;;;;24.60;17.58;;;14.60;91.20;;;;;;5023989;28;20072;-74
2023/10/10 07:33:24;;;;;;;22.20;16.77;;;14.60;91.30;;;;;;5013568;28;20055;-73
2023/10/10 07:35:55;;;;;;;25.88;17.25;;;14.70;91.20;;;;;;5016113;28;20026;-74
2023/10/10 07:38:28;;;;;;;28.25;17.02;;;14.80;90.90;;;;;;5019185;28;20038;-74
2023/10/10 07:40:54;;;;;;;29.45;17.25;;;14.90;90.80;;;;;;5017034;28;20045;-80
2023/10/10 07:43:26;;;;;;;35.78;17.50;;;14.90;90.70;;;;;;5016313;28;20025;-77
2023/10/10 07:45:54;;;;;;;28.00;17.25;;;15.00;90.70;;;;;;5019475;28;20045;-74
2023/10/10 07:51:06;;;;;;;36.65;17.30;;;15.10;90.00;;;;;;5019511;28;20447;-74
2023/10/10 07:53:44;;;;;;;39.10;18.55;;;15.10;89.90;;;;;;5018618;28;20029;-73
2023/10/10 07:56:10;;;;;;;23.15;14.68;;;15.10;89.70;;;;;;5017843;28;20045;-75
2023/10/10 07:58:49;;;;;;;29.23;16.42;;;15.10;89.90;;;;;;5017502;28;20124;-74
2023/10/10 08:01:18;;;;;;;32.25;17.05;;;15.10;89.60;;;;;;5019655;28;20087;-75
2023/10/10 08:03:47;;;;;;;24.95;15.18;;;15.20;89.60;;;;;;5024240;28;20064;-78
2023/10/10 08:06:18;;;;;;;27.85;15.63;;;15.30;89.40;;;;;;5015874;28;20388;-74
2023/10/10 08:08:49;;;;;;;30.35;14.93;;;15.60;89.30;;;;;;5020150;28;20064;-75
2023/10/10 08:11:35;;;;;;;23.30;14.32;;;15.80;88.60;;;;;;5022121;28;20472;-72
2023/10/10 08:14:05;;;;;;;23.05;14.23;;;16.00;88.10;;;;;;5019648;28;20860;-73
2023/10/10 08:16:33;;;;;;;24.27;14.85;;;16.20;87.90;;;;;;5020008;28;20037;-76
2023/10/10 08:19:04;;;;;;;22.25;14.05;;;16.30;87.10;;;;;;5015805;28;20032;-77
2023/10/10 08:21:36;;;;;;;22.67;13.75;;;16.50;86.80;;;;;;5020258;28;20033;-73
2023/10/10 08:24:02;;;;;;;20.92;13.68;;;16.60;85.80;;;;;;5022522;28;20468;-73
2023/10/10 08:26:29;;;;;;;21.70;13.90;;;16.80;86.00;;;;;;5013585;28;20942;-74
2023/10/10 08:28:55;;;;;;;20.90;14.45;;;16.90;85.40;;;;;;5017927;28;20116;-76
2023/10/10 08:31:22;;;;;;;21.77;13.27;;;17.00;85.00;;;;;;5019057;28;20108;-75
2023/10/10 08:33:49;;;;;;;21.38;13.85;;;17.10;85.10;;;;;;5018284;28;20439;-74
2023/10/10 08:36:24;;;;;;;22.95;13.90;;;17.30;85.30;;;;;;5021090;28;20037;-73
2023/10/10 08:38:54;;;;;;;20.85;12.63;;;17.50;84.70;;;;;;5017702;28;20066;-76
2023/10/10 08:41:27;;;;;;;19.85;13.48;;;17.60;83.80;;;;;;5019811;28;20053;-75
2023/10/10 08:43:58;;;;;;;21.50;13.35;;;17.70;83.60;;;;;;5016004;28;20829;-74
2023/10/10 08:46:30;;;;;;;19.80;12.98;;;17.80;83.50;;;;;;5016644;28;20045;-77
2023/10/10 08:48:58;;;;;;;20.75;13.07;;;18.00;83.50;;;;;;5015818;28;20102;-76
2023/10/10 08:51:26;;;;;;;18.73;13.75;;;18.10;83.20;;;;;;5011902;28;20117;-75
2023/10/10 08:53:53;;;;;;;20.63;12.80;;;18.40;82.10;;;;;;5013426;28;20171;-73
2023/10/10 08:56:20;;;;;;;17.48;12.70;;;18.50;82.20;;;;;;5014239;28;20057;-75
2023/10/10 08:58:46;;;;;;;20.67;13.18;;;18.60;82.00;;;;;;5017675;28;20061;-74
2023/10/10 09:01:13;;;;;;;21.77;14.10;;;18.80;81.00;;;;;;5015074;28;20073;-73
2023/10/10 09:03:45;;;;;;;20.58;13.52;;;18.70;80.90;;;;;;5017988;28;20025;-75
2023/10/10 09:06:19;;;;;;;18.67;12.80;;;18.80;81.10;;;;;;5016650;28;20041;-76
2023/10/10 09:08:49;;;;;;;16.52;12.43;;;19.00;80.90;;;;;;5019313;28;20044;-74
2023/10/10 09:11:15;;;;;;;21.92;13.82;;;19.00;80.20;;;;;;5020575;28;20102;-73
2023/10/10 09:13:51;;;;;;;19.20;12.20;;;19.30;80.60;;;;;;5020728;28;20613;-76
2023/10/10 09:16:41;;;;;;;18.83;12.10;;;19.30;79.70;;;;;;5013459;28;20099;-77
2023/10/10 09:19:10;;;;;;;17.73;12.77;;;19.50;79.70;;;;;;5022701;28;20038;-74
2023/10/10 09:21:46;;;;;;;18.55;11.95;;;19.50;79.20;;;;;;5017292;28;20069;-73
2023/10/10 09:24:27;;;;;;;15.85;11.10;;;19.60;78.50;;;;;;5017275;28;20627;-76
2023/10/10 09:26:56;;;;;;;19.63;11.73;;;19.60;78.90;;;;;;5014149;28;20052;-74
2023/10/10 09:29:34;;;;;;;17.92;11.63;;;19.80;77.50;;;;;;5020818;28;20435;-83
2023/10/10 09:32:01;;;;;;;16.90;11.95;;;19.90;77.00;;;;;;5016498;28;20035;-78
2023/10/10 09:34:35;;;;;;;17.70;11.13;;;20.00;75.60;;;;;;5020026;28;20075;-72
2023/10/10 09:37:07;;;;;;;23.58;11.38;;;20.10;76.00;;;;;;5015589;28;20045;-72
2023/10/10 09:39:41;;;;;;;16.77;11.13;;;20.10;76.30;;;;;;5017195;28;20033;-73
2023/10/10 09:42:22;;;;;;;20.30;12.07;;;20.30;75.60;;;;;;5015177;28;20026;-76
2023/10/10 09:44:53;;;;;;;21.30;11.10;;;20.30;75.40;;;;;;5020235;28;20066;-73
2023/10/10 09:47:43;;;;;;;22.30;11.43;;;20.30;75.50;;;;;;5015928;28;20381;-74
2023/10/10 09:52:58;;;;;;;18.05;11.40;;;20.50;74.70;;;;;;5020899;28;20029;-74
2023/10/10 09:58:00;;;;;;;16.23;11.20;;;20.60;74.40;;;;;;5019104;28;20123;-76
2023/10/10 10:06:54;;;;;;;20.55;10.80;;;20.60;72.90;;;;;;5017713;28;20116;-74
2023/10/10 10:09:17;;;;;;;17.90;10.10;;;20.90;72.50;;;;;;5006232;28;20511;-75
2023/10/10 10:12:10;;;;;;;13.70;9.05;;;21.10;72.40;;;;;;5014962;28;20033;-77
2023/10/10 10:14:54;;;;;;;18.73;10.07;;;21.20;71.80;;;;;;5014932;28;20439;-75
2023/10/10 10:17:47;;;;;;;;;;;21.30;71.40;;;;;;5017011;28;20033;-74
2023/10/10 10:20:33;;;;;;;17.20;10.35;;;21.40;70.90;;;;;;5015037;28;20272;-77
2023/10/10 10:23:00;;;;;;;15.23;9.55;;;21.30;70.60;;;;;;5017957;28;20036;-81
2023/10/10 10:25:36;;;;;;;20.50;11.38;;;21.50;71.40;;;;;;5018326;28;20037;-74
2023/10/10 10:28:10;;;;;;;16.45;9.75;;;21.60;70.40;;;;;;5018885;28;20029;-75
2023/10/10 10:30:50;;;;;;;18.80;9.93;;;21.60;70.60;;;;;;5015408;28;20662;-74
2023/10/10 10:33:19;;;;;;;15.23;9.18;;;21.60;70.20;;;;;;5014939;28;20021;-74
2023/10/10 10:35:56;;;;;;;15.38;9.30;;;21.80;70.50;;;;;;5017031;28;20025;-77
2023/10/10 10:38:25;;;;;;;18.65;8.82;;;22.00;70.00;;;;;;5011887;28;20045;-74
2023/10/10 10:41:04;;;;;;;13.35;7.90;;;22.10;69.40;;;;;;5015381;28;20036;-79
2023/10/10 10:43:42;;;;;;;15.95;9.13;;;22.20;69.20;;;;;;5013102;28;20083;-79
2023/10/10 10:46:14;;;;;;;18.55;8.40;;;22.40;68.90;;;;;;5013010;28;20049;-78
2023/10/10 10:48:48;;;;;;;17.27;8.68;;;22.50;67.50;;;;;;5012647;28;20117;-77
2023/10/10 10:55:18;;;;;;;14.63;8.70;;;22.60;67.90;;;;;;4989174;28;20037;-78
2023/10/10 10:57:02;;;;;;;15.40;8.18;;;22.70;66.00;;;;;;5007047;28;20068;-76
2023/10/10 10:59:35;;;;;;;15.50;8.35;;;22.70;66.50;;;;;;5012244;28;20368;-77
2023/10/10 11:02:05;;;;;;;17.27;8.37;;;22.80;66.30;;;;;;5012672;28;20040;-79
2023/10/10 11:07:03;;;;;;;17.73;8.07;;;22.90;65.80;;;;;;5016930;28;20041;-77
2023/10/10 11:09:31;;;;;;;15.07;7.95;;;23.00;66.30;;;;;;5016061;28;20052;-74
2023/10/10 11:12:03;;;;;;;17.00;8.48;;;23.00;65.40;;;;;;5011089;28;20033;-78
2023/10/10 11:14:30;;;;;;;16.48;8.10;;;23.00;65.40;;;;;;5012548;28;20554;-77
2023/10/10 11:16:57;;;;;;;17.70;7.53;;;23.00;65.90;;;;;;5013269;28;20399;-77
2023/10/10 11:22:05;;;;;;;14.43;7.60;;;23.20;65.00;;;;;;5020692;28;20164;-79
2023/10/10 11:24:34;;;;;;;13.73;6.75;;;23.30;65.40;;;;;;5018106;28;20037;-79
2023/10/10 11:29:35;;;;;;;13.65;6.78;;;23.50;64.40;;;;;;5017690;28;20041;-77
2023/10/10 11:32:08;;;;;;;14.55;7.25;;;23.50;64.90;;;;;;5018816;28;20033;-78
2023/10/10 11:34:46;;;;;;;13.25;6.50;;;23.60;65.10;;;;;;5014323;28;20060;-78
2023/10/10 11:37:23;;;;;;;10.88;5.85;;;23.60;63.70;;;;;;5010111;28;20044;-79
2023/10/10 11:39:57;;;;;;;12.27;6.68;;;23.70;64.10;;;;;;5013685;28;20041;-78
2023/10/10 11:42:26;;;;;;;15.90;7.35;;;23.80;63.40;;;;;;5013327;28;20448;-81
2023/10/10 11:45:17;;;;;;;12.32;6.40;;;23.90;62.60;;;;;;5011722;28;20396;-76
2023/10/10 11:47:44;;;;;;;11.75;6.63;;;24.10;62.70;;;;;;5016938;28;20468;-73
2023/10/10 11:50:15;;;;;;;12.73;6.32;;;24.10;62.80;;;;;;5020296;28;20084;-75
2023/10/10 11:52:58;;;;;;;14.75;5.97;;;24.20;61.90;;;;;;5016204;28;20091;-75
2023/10/10 11:55:25;;;;;;;14.13;6.30;;;24.30;62.10;;;;;;5017722;28;20048;-74
2023/10/10 11:57:52;;;;;;;11.32;5.90;;;24.30;60.90;;;;;;5013186;28;20378;-76
2023/10/10 12:00:38;;;;;;;13.95;6.30;;;24.40;60.90;;;;;;5014867;28;20030;-82
2023/10/10 12:03:05;;;;;;;13.35;6.45;;;24.50;61.20;;;;;;5014935;28;20389;-80
2023/10/10 12:08:01;;;;;;;14.63;6.18;;;24.60;60.10;;;;;;5015317;28;20045;-76
2023/10/10 12:13:34;;;;;;;13.52;5.50;;;24.80;59.50;;;;;;4999265;28;20034;-75
2023/10/10 12:16:10;;;;;;;12.40;6.22;;;24.90;58.90;;;;;;5017088;28;20047;-77
2023/10/10 12:18:43;;;;;;;11.65;5.60;;;25.00;58.80;;;;;;5010342;28;20419;-79
2023/10/10 12:21:10;;;;;;;12.07;5.70;;;25.00;57.80;;;;;;5018113;28;20061;-80
2023/10/10 12:23:36;;;;;;;10.07;5.30;;;25.10;57.50;;;;;;5017198;28;20030;-79
2023/10/10 12:26:04;;;;;;;12.13;5.80;;;25.10;58.60;;;;;;5018583;28;20045;-78
2023/10/10 12:28:30;;;;;;;10.52;5.70;;;25.00;56.90;;;;;;5020336;28;20033;-81
2023/10/10 12:30:56;;;;;;;11.00;5.57;;;25.10;58.10;;;;;;5015270;28;20049;-73
2023/10/10 12:33:23;;;;;;;9.93;5.22;;;25.10;56.60;;;;;;5017464;28;20093;-78
2023/10/10 12:35:49;;;;;;;9.57;5.47;;;25.20;56.90;;;;;;5022748;28;20038;-77
2023/10/10 12:38:20;;;;;;;9.90;5.57;;;25.20;56.10;;;;;;5012840;28;20030;-76
2023/10/10 12:40:56;;;;;;;12.85;5.63;;;25.10;55.10;;;;;;5017447;28;20029;-78
2023/10/10 12:43:25;;;;;;;13.35;5.10;;;25.10;54.60;;;;;;5014037;28;20037;-77
2023/10/10 12:45:54;;;;;;;9.77;5.30;;;25.10;54.70;;;;;;5018886;28;20251;-76
2023/10/10 12:48:20;;;;;;;12.55;5.10;;;25.20;54.70;;;;;;5016022;28;20029;-75
2023/10/10 12:50:50;;;;;;;10.50;5.25;;;25.20;53.10;;;;;;5020598;28;20037;-76
2023/10/10 12:53:19;;;;;;;10.18;4.90;;;25.20;52.50;;;;;;5017648;28;20017;-75
2023/10/10 12:56:01;;;;;;;11.85;5.40;;;25.30;52.30;;;;;;5018414;28;20170;-74
2023/10/10 12:58:28;;;;;;;14.40;5.28;;;25.30;51.60;;;;;;5014298;28;20033;-73
2023/10/10 13:00:56;;;;;;;11.65;4.75;;;25.40;52.10;;;;;;5012046;28;20040;-75
2023/10/10 13:03:23;;;;;;;10.85;5.18;;;25.40;51.00;;;;;;5015042;28;20099;-80
2023/10/10 13:05:58;;;;;;;11.02;4.93;;;25.50;50.80;;;;;;5018013;28;20587;-75
2023/10/10 13:08:24;;;;;;;11.27;5.03;;;25.60;50.90;;;;;;5010504;28;20083;-74
2023/10/10 13:11:00;;;;;;;11.98;5.00;;;25.60;50.80;;;;;;5020549;28;20048;-75
2023/10/10 13:13:26;;;;;;;12.25;4.68;;;25.70;49.80;;;;;;5016668;28;20671;-78
2023/10/10 13:16:07;;;;;;;14.60;5.28;;;25.70;49.20;;;;;;5020516;28;20046;-75
2023/10/10 13:18:35;;;;;;;12.80;4.30;;;25.70;48.90;;;;;;5015633;28;20437;-79
2023/10/10 13:21:01;;;;;;;9.82;4.78;;;25.70;49.50;;;;;;5021285;28;20040;-73
2023/10/10 13:23:27;;;;;;;15.93;5.35;;;25.70;49.50;;;;;;5017517;28;20040;-74
2023/10/10 13:25:54;;;;;;;12.55;5.40;;;25.70;49.30;;;;;;5019188;28;20037;-79
2023/10/10 13:28:21;;;;;;;11.27;4.55;;;25.60;49.90;;;;;;5018201;28;20022;-73
2023/10/10 13:30:47;;;;;;;11.25;4.68;;;25.40;49.80;;;;;;5015559;28;20103;-77
2023/10/10 13:33:16;;;;;;;10.38;4.15;;;25.50;50.60;;;;;;5016104;28;20021;-77
2023/10/10 13:35:42;;;;;;;9.00;4.88;;;25.60;51.60;;;;;;5016976;28;20033;-75
2023/10/10 13:38:10;;;;;;;9.95;4.47;;;25.70;50.50;;;;;;5013450;28;20128;-76
2023/10/10 13:40:43;;;;;;;10.23;4.80;;;25.80;51.20;;;;;;5012913;28;20064;-80
2023/10/10 13:43:10;;;;;;;13.65;5.65;;;26.00;49.70;;;;;;5018418;28;20028;-74
2023/10/10 13:45:38;;;;;;;9.85;4.13;;;26.00;49.60;;;;;;5018448;28;20041;-77
2023/10/10 13:48:08;;;;;;;11.30;4.60;;;26.10;50.50;;;;;;5019015;28;20088;-77
2023/10/10 13:50:44;;;;;;;12.70;4.43;;;26.10;50.20;;;;;;5011712;28;20044;-77
2023/10/10 13:53:14;;;;;;;14.18;4.57;;;26.30;50.20;;;;;;5015961;28;20026;-75
2023/10/10 13:55:46;;;;;;;10.77;4.28;;;26.30;49.90;;;;;;5022055;28;20037;-75
2023/10/10 13:58:13;;;;;;;11.98;4.68;;;26.40;50.20;;;;;;5015818;28;20034;-76
2023/10/10 14:00:55;;;;;;;10.07;4.95;;;26.40;50.10;;;;;;5019332;28;20040;-81
2023/10/10 14:03:35;;;;;;;9.98;4.35;;;26.40;49.40;;;;;;5012876;28;20022;-75
2023/10/10 14:06:04;;;;;;;10.13;4.40;;;26.50;50.10;;;;;;5016901;28;20033;-77
2023/10/10 14:08:31;;;;;;;10.60;4.40;;;26.50;50.50;;;;;;5015120;28;20033;-77
2023/10/10 14:11:00;;;;;;;9.55;4.15;;;26.60;51.40;;;;;;5013559;28;20152;-79
2023/10/10 14:13:29;;;;;;;8.82;4.38;;;26.60;50.20;;;;;;5013890;28;20063;-76
2023/10/10 14:15:56;;;;;;;11.35;4.65;;;26.60;49.10;;;;;;5014353;28;20034;-79
2023/10/10 14:18:32;;;;;;;10.90;4.43;;;26.60;49.00;;;;;;5014160;28;20070;-77
2023/10/10 14:21:07;;;;;;;9.88;4.53;;;26.60;50.40;;;;;;5016757;28;20063;-74
2023/10/10 14:23:35;;;;;;;9.35;4.88;;;26.50;50.20;;;;;;5011990;28;20048;-78
2023/10/10 14:26:26;;;;;;;12.13;4.50;;;26.60;51.40;;;;;;5015349;28;20648;-75
2023/10/10 14:28:51;;;;;;;8.23;4.00;;;26.70;50.30;;;;;;5011571;28;20041;-74
2023/10/10 14:31:24;;;;;;;8.60;3.72;;;26.70;50.40;;;;;;5010303;28;20055;-75
2023/10/10 14:33:51;;;;;;;11.25;4.03;;;26.80;49.40;;;;;;5009944;28;20068;-77
2023/10/10 14:36:17;;;;;;;10.35;4.53;;;26.80;50.20;;;;;;5012712;28;20046;-74
2023/10/10 14:38:48;;;;;;;9.13;4.30;;;26.70;49.90;;;;;;5015190;28;20433;-76
2023/10/10 14:41:19;;;;;;;9.02;4.30;;;26.70;49.10;;;;;;5017395;28;20045;-75
2023/10/10 14:43:48;;;;;;;12.13;3.97;;;26.80;48.60;;;;;;5017572;28;20363;-77
2023/10/10 14:46:21;;;;;;;9.15;3.63;;;26.80;48.10;;;;;;5018982;28;20040;-75
2023/10/10 14:49:00;;;;;;;8.45;4.07;;;26.70;48.20;;;;;;5016540;28;20049;-75
2023/10/10 14:51:33;;;;;;;10.90;3.58;;;26.60;48.30;;;;;;5012894;28;20030;-77
2023/10/10 14:54:05;;;;;;;8.40;4.13;;;26.30;47.70;;;;;;5016635;28;20113;-74
2023/10/10 14:56:35;;;;;;;10.18;3.80;;;26.20;49.10;;;;;;5016949;28;20045;-75
2023/10/10 14:59:04;;;;;;;11.65;4.35;;;26.10;48.90;;;;;;5022422;28;20125;-78
2023/10/10 15:01:34;;;;;;;11.55;4.53;;;26.00;49.40;;;;;;5024593;28;20399;-75
2023/10/10 15:04:04;;;;;;;10.13;4.07;;;26.00;50.00;;;;;;5019554;28;20021;-75
2023/10/10 15:06:31;;;;;;;12.32;3.92;;;25.80;50.70;;;;;;5023759;28;20041;-76
2023/10/10 15:08:58;;;;;;;8.40;3.97;;;25.60;52.20;;;;;;5024419;28;20038;-75
2023/10/10 15:11:27;;;;;;;12.18;4.55;;;25.50;51.90;;;;;;5024074;28;20025;-78
2023/10/10 15:13:54;;;;;;;10.55;4.10;;;25.50;53.00;;;;;;5021145;28;20024;-79
2023/10/10 15:16:21;;;;;;;11.18;4.00;;;25.50;53.80;;;;;;5018660;28;20076;-80
2023/10/10 15:18:51;;;;;;;11.27;4.10;;;25.30;53.60;;;;;;5019274;28;20099;-79
2023/10/10 15:21:20;;;;;;;10.88;4.25;;;25.20;53.30;;;;;;5021599;28;20066;-76
2023/10/10 15:23:47;;;;;;;10.25;4.35;;;25.00;53.40;;;;;;5026085;28;20030;-80
2023/10/10 15:26:19;;;;;;;10.73;4.03;;;24.90;52.10;;;;;;5022758;28;20120;-76
2023/10/10 15:28:45;;;;;;;8.60;3.72;;;24.80;53.50;;;;;;5029182;28;20088;-76
2023/10/10 15:31:12;;;;;;;9.65;4.28;;;24.70;52.90;;;;;;5022215;28;20076;-79
2023/10/10 15:33:43;;;;;;;10.68;4.13;;;24.50;53.20;;;;;;5022020;28;20035;-77
2023/10/10 15:36:11;;;;;;;8.73;4.13;;;24.40;53.80;;;;;;5019981;28;20040;-83
2023/10/10 15:38:38;;;;;;;9.95;4.10;;;24.30;54.50;;;;;;5022375;28;20049;-79
2023/10/10 15:41:19;;;;;;;12.40;4.32;;;24.10;54.70;;;;;;5026728;28;20123;-74
2023/10/10 15:43:49;;;;;;;11.63;4.43;;;24.00;54.60;;;;;;5025267;28;20379;-83
2023/10/10 15:46:25;;;;;;;10.10;4.22;;;23.90;55.20;;;;;;5019195;28;20061;-76
2023/10/10 15:48:51;;;;;;;10.00;3.78;;;23.80;55.40;;;;;;5029208;28;20380;-76
2023/10/10 15:51:21;;;;;;;7.80;3.95;;;23.70;55.40;;;;;;5026146;28;20029;-74
2023/10/10 15:53:49;;;;;;;10.65;4.70;;;23.70;56.10;;;;;;5020140;28;20111;-77